ADDS METAR Data INFO
IDs: Format: Raw Decoded Include TAF

Data at: 0752 UTC 20 Feb 2018

KTME 200735Z AUTO 17014G22KT 10SM BKN018 OVC023 22/20 A2997 RMK AO2
KTME 200715Z AUTO 17020G26KT 10SM BKN016 BKN022 OVC100 22/20 A2997 RMK AO2
KTME 200655Z AUTO 17017G24KT 9SM BKN016 BKN022 22/20 A2997 RMK AO2
KTME 200635Z AUTO 16015G23KT 10SM BKN015 22/20 A2997 RMK AO2
KTME 200615Z AUTO 16016G21KT 10SM OVC016 22/20 A2997 RMK AO2
KTME 200555Z AUTO 17016G21KT 10SM OVC017 22/20 A2997 RMK AO2
KTME 200535Z AUTO 17014G20KT 9SM OVC017 22/20 A2997 RMK AO2
KTME 200515Z AUTO 17017KT 10SM OVC016 22/20 A2997 RMK AO2
KTME 200455Z AUTO 17015KT 9SM BKN017 BKN023 22/20 A2997 RMK AO2
KTME 200435Z AUTO 16016KT 9SM BKN017 BKN023 BKN029 22/20 A2996 RMK AO2
KTME 200415Z AUTO 17015KT 9SM SCT015 BKN019 OVC031 23/21 A2996 RMK AO2
KTME 200355Z AUTO 17017KT 9SM BKN017 OVC023 23/21 A2996 RMK AO2
KTME 200335Z AUTO 17016KT 9SM SCT016 OVC023 23/21 A2996 RMK AO2
KTME 200315Z AUTO 17013G19KT 9SM BKN015 OVC019 23/21 A2996 RMK AO2
KTME 200255Z AUTO 17014G21KT 9SM BKN015 OVC020 23/21 A2995 RMK AO2
KTME 200235Z AUTO 16014KT 9SM BKN015 OVC021 23/21 A2995 RMK AO2
KTME 200215Z AUTO 17015G21KT 10SM BKN013 OVC019 23/21 A2995 RMK AO2
KTME 200155Z AUTO 17012KT 10SM BKN014 OVC020 23/21 A2995 RMK AO2
KTME 200135Z AUTO 15015KT 9SM SCT016 BKN020 BKN031 23/21 A2994 RMK AO2
KTME 200115Z AUTO 15012G18KT 10SM FEW017 FEW021 BKN055 23/21 A2994 RMK AO2
KTME 200055Z AUTO 15014KT 10SM FEW021 FEW026 OVC060 23/20 A2993 RMK AO2
KTME 200035Z AUTO 15011G19KT 10SM BKN020 OVC060 23/20 A2994 RMK AO2
KTME 200015Z AUTO 15013KT 10SM BKN019 BKN026 OVC055 23/20 A2994 RMK AO2
KTME 192355Z AUTO 16015G20KT 9SM SCT020 BKN026 OVC060 23/20 A2994 RMK AO2
KTME 192335Z AUTO 15016KT 9SM BKN022 BKN027 OVC050 24/20 A2994 RMK AO2
KTME 192315Z AUTO 17013G18KT 10SM BKN023 BKN030 OVC060 24/20 A2994 RMK AO2
KTME 192255Z AUTO 17014G21KT 10SM SCT025 BKN044 OVC060 24/20 A2994 RMK AO2
KTME 192235Z AUTO 17015G20KT 10SM FEW023 SCT044 BKN050 24/19 A2993 RMK AO2
KTME 192215Z AUTO 17013KT 10SM FEW030 BKN050 OVC065 24/19 A2993 RMK AO2
KTME 192155Z AUTO 17017KT 10SM FEW035 OVC050 24/19 A2994 RMK AO2
KTME 192135Z AUTO 17014G25KT 10SM FEW029 FEW035 OVC050 24/19 A2994 RMK AO2
KTME 192115Z AUTO 18019KT 10SM BKN055 BKN070 25/18 A2993 RMK AO2
KTME 192055Z AUTO 17019KT 10SM FEW060 SCT075 26/18 A2993 RMK AO2
KTME 192035Z AUTO 17020G25KT 10SM FEW036 FEW042 SCT055 26/18 A2993 RMK AO2
KTME 192015Z AUTO 17019G26KT 10SM FEW038 FEW043 BKN055 27/18 A2994 RMK AO2
KTME 191955Z AUTO 18017G25KT 10SM FEW040 BKN055 27/18 A2994 RMK AO2
KTME 191935Z AUTO 18017G23KT 10SM FEW036 FEW041 BKN055 28/18 A2994 RMK AO2
KTME 191915Z AUTO 17019KT 10SM SCT037 BKN044 BKN060 27/19 A2995 RMK AO2
KTME 191855Z AUTO 18015G26KT 10SM FEW034 BKN041 BKN049 26/18 A2996 RMK AO2
KTME 191835Z AUTO 18019G24KT 10SM SCT034 BKN041 BKN050 27/19 A2997 RMK AO2
KTME 191815Z AUTO 17016G24KT 10SM SCT032 SCT039 BKN060 27/19 A2998 RMK AO2
KTME 191755Z AUTO 18019G26KT 10SM BKN030 BKN042 BKN050 26/19 A2999 RMK AO2
KTME 191735Z AUTO 18020KT 10SM BKN031 BKN038 BKN045 26/19 A3000 RMK AO2
KTME 191715Z AUTO 18018G26KT 10SM SCT028 BKN038 BKN044 26/19 A3001 RMK AO2
KTME 191655Z AUTO 17016G23KT 10SM SCT024 BKN028 BKN035 25/19 A3002 RMK AO2
KTME 191635Z AUTO 18015KT 10SM SCT023 BKN030 OVC046 25/19 A3002 RMK AO2
KTME 191615Z AUTO 18017KT 10SM BKN021 BKN025 OVC029 25/20 A3003 RMK AO2
KTME 191555Z AUTO 18017G23KT 10SM BKN018 BKN023 BKN031 25/20 A3002 RMK AO2
KTME 191535Z AUTO 17013G18KT 9SM SCT016 BKN020 OVC025 23/20 A3002 RMK AO2
KTME 191515Z AUTO 18015KT 9SM SCT016 OVC022 23/20 A3002 RMK AO2
KTME 191455Z AUTO 18015KT 9SM SCT015 OVC021 23/20 A3001 RMK AO2
KTME 191435Z AUTO 17013KT 9SM BKN015 OVC021 22/20 A3001 RMK AO2
KTME 191415Z AUTO 17012KT 9SM OVC017 22/20 A3000 RMK AO2
KTME 191355Z AUTO 17009G15KT 8SM OVC019 21/20 A3000 RMK AO2
KTME 191335Z AUTO 17012KT 7SM OVC019 21/20 A2999 RMK AO2
KTME 191315Z AUTO 17010G15KT 8SM OVC020 21/20 A2999 RMK AO2
KTME 191255Z AUTO 17011KT 10SM BKN019 BKN024 21/19 A2999 RMK AO2
KTME 191235Z AUTO 17012KT 10SM BKN019 OVC023 21/19 A2999 RMK AO2
KTME 191215Z AUTO 17011KT 9SM BKN022 OVC028 21/19 A2998 RMK AO2
KTME 191155Z AUTO 17011G17KT 10SM SCT022 OVC028 21/19 A2998 RMK AO2
KTME 191135Z AUTO 17011KT 10SM SCT022 OVC028 21/19 A2998 RMK AO2
KTME 191115Z AUTO 17011KT 10SM OVC026 21/19 A2998 RMK AO2
KTME 191055Z AUTO 17013KT 10SM OVC026 21/19 A2998 RMK AO2
KTME 191035Z AUTO 17011KT 10SM OVC025 21/19 A2997 RMK AO2
KTME 191015Z AUTO 17012G17KT 10SM OVC026 21/19 A2997 RMK AO2
KTME 190955Z AUTO 17012KT 10SM OVC027 21/19 A2997 RMK AO2
KTME 190935Z AUTO 17012G17KT 10SM OVC026 21/19 A2997 RMK AO2
KTME 190915Z AUTO 18012KT 10SM OVC023 21/19 A2997 RMK AO2
KTME 190855Z AUTO 17010KT 10SM OVC022 21/19 A2997 RMK AO2
KTME 190835Z AUTO 17012KT 10SM OVC023 21/19 A2997 RMK AO2
KTME 190815Z AUTO 17015G21KT 10SM SCT024 20/19 A2996 RMK AO2
KTME 190755Z AUTO 17014G20KT 10SM FEW013 FEW019 20/19 A2997 RMK AO2
KTME 190735Z AUTO 17014KT 10SM SCT014 BKN023 20/19 A2998 RMK AO2
KTME 190715Z AUTO 17016KT 10SM SCT013 SCT019 BKN024 20/19 A2998 RMK AO2
KTME 190655Z AUTO 17014G22KT 10SM FEW014 FEW018 BKN024 21/19 A2998 RMK AO2
KTME 190635Z AUTO 16013KT 10SM OVC025 21/19 A2999 RMK AO2
KTME 190615Z AUTO 17015KT 10SM FEW014 OVC027 20/19 A2999 RMK AO2
KTME 190555Z AUTO 16014G21KT 10SM FEW014 OVC028 21/19 A3000 RMK AO2
KTME 190535Z AUTO 17016KT 10SM SCT016 BKN021 OVC028 21/19 A3001 RMK AO2
KTME 190515Z AUTO 17015KT 10SM BKN013 OVC018 21/19 A3002 RMK AO2
KTME 190455Z AUTO 17012KT 10SM BKN013 OVC019 21/19 A3002 RMK AO2
KTME 190435Z AUTO 16014KT 10SM BKN013 BKN019 20/19 A3002 RMK AO2
KTME 190415Z AUTO 16013KT 10SM FEW014 20/19 A3002 RMK AO2
KTME 190355Z AUTO 16013KT 10SM SCT012 20/19 A3002 RMK AO2
KTME 190335Z AUTO 16011KT 10SM BKN011 BKN018 20/20 A3003 RMK AO2
KTME 190315Z AUTO 16010KT 10SM FEW013 20/19 A3003 RMK AO2
KTME 190255Z AUTO 16008KT 10SM CLR 20/19 A3003 RMK AO2
KTME 190235Z AUTO 16008KT 10SM CLR 20/19 A3003 RMK AO2
KTME 190215Z AUTO 16010KT 10SM CLR 21/19 A3002 RMK AO2
KTME 190155Z AUTO 16010KT 10SM CLR 21/18 A3002 RMK AO2
KTME 190135Z AUTO 16013KT 10SM CLR 21/18 A3001 RMK AO2
KTME 190115Z AUTO 17012KT 10SM CLR 22/18 A3001 RMK AO2
KTME 190055Z AUTO 16010G16KT 10SM CLR 22/18 A3001 RMK AO2
KTME 190035Z AUTO 17010KT 10SM CLR 22/18 A3001 RMK AO2
KTME 190015Z AUTO 17011G17KT 10SM CLR 23/18 A3001 RMK AO2
KTME 182355Z AUTO 17012KT 10SM FEW050 23/18 A3001 RMK AO2
KTME 182335Z AUTO 17013KT 10SM FEW036 SCT047 BKN050 24/18 A3001 RMK AO2
KTME 182315Z AUTO 18015KT 10SM SCT036 BKN045 BKN055 25/19 A3001 RMK AO2
KTME 182255Z AUTO 18014KT 10SM SCT034 SCT041 BKN050 26/19 A3001 RMK AO2
KTME 182235Z AUTO 17014G20KT 10SM SCT039 SCT046 27/19 A3001 RMK AO2
KTME 182215Z AUTO 18016KT 10SM SCT040 BKN047 28/18 A3001 RMK AO2
KTME 182155Z AUTO 19016KT 10SM SCT041 SCT047 BKN055 28/17 A3001 RMK AO2
KTME 182135Z AUTO 16012G19KT 10SM BKN038 BKN047 BKN055 27/19 A3001 RMK AO2
KTME 182115Z AUTO 18011G17KT 10SM FEW034 SCT043 BKN070 27/19 A3002 RMK AO2
KTME 182055Z AUTO 17009G16KT 10SM FEW033 SCT060 BKN070 26/18 A3002 RMK AO2
KTME 182035Z AUTO 17012KT 10SM SCT032 SCT040 BKN060 27/19 A3003 RMK AO2
KTME 182015Z AUTO 17009G18KT 10SM FEW032 SCT039 SCT044 27/19 A3004 RMK AO2
KTME 181955Z AUTO 16012G17KT 10SM FEW031 FEW040 FEW045 26/19 A3005 RMK AO2